Detall de PIREP

Printer-friendly versionPDF version

[2017/01/07 10:08:00]
Flight IATA:CT1004
Pilot Number:012
Company ICAO:CAT
Aircraft Type:DC3/A
PAX:19
Aircraft Registration:PAX
Departing Airport: LFMP
Destination Airport: LIMJ
Alternate Airport:LFMN
Online: VATSIM
Route:FJR Y25 SALIN Y341 MTG DCT ABN GEN
Flight Level:F100
No Slew and time accel
No pause
Crash detect
Detect pilot in Cockpit between each 30 and 45 minutes
10:08 Zero fuel Weight: 20075 Lbs, Fuel Weight: 3004 Lbs
10:08 VATSIM:LFMP 070930Z AUTO 35004KT 290V010 CAVOK 09/M10 Q1030 NOSIG
10:08 VATSIM:LIMJ 070950Z 05006KT 010V080 9999 FEW035 05/M17 Q1029
10:08 XMAS CHARTER
10:09 Parking Brakes off
10:12 Take-off
10:12 Take off Weight: 23061 Lbs
10:12 Wind: 352º @ 004 Knots Heading: 328º
10:12 POS N42º 44´ 40´´ E002º 52´ 10´´
10:12 Gear Up: 106 Knots
10:24 TOC
10:24 Fuel Weight: 2826 Lb
10:27 Wind:015º@021 Knots Heading: 035º Ground Speed: 145 Knots Altitude 10541 ft
10:42 Wind:004º@024 Knots Heading: 039º Ground Speed: 149 Knots Altitude 10544 ft
10:57 Wind:006º@028 Knots Heading: 109º Ground Speed: 174 Knots Altitude 10511 ft
11:12 Wind:004º@025 Knots Heading: 064º Ground Speed: 155 Knots Altitude 10492 ft
11:27 Wind:358º@026 Knots Heading: 064º Ground Speed: 157 Knots Altitude 10456 ft
11:42 Wind:006º@029 Knots Heading: 064º Ground Speed: 146 Knots Altitude 10442 ft
11:57 Wind:337º@002 Knots Heading: 074º Ground Speed: 166 Knots Altitude 10439 ft
12:06 TOD
12:06 Fuel Weight: 1647 Lb
12:06 TOC
12:06 Fuel Weight: 1643 Lb
12:06 TOD
12:06 Fuel Weight: 1640 Lb
12:12 Wind:288º@000 Knots Heading: 059º Ground Speed: 161 Knots Altitude 6085 ft
12:27 Wind:247º@001 Knots Heading: 300º Ground Speed: 132 Knots Altitude 4019 ft
12:29 Flaps:1 at 112 Knots
12:32 Gear Down: 98 Knots
12:36 Flaps:2 at 99 Knots
12:36 Flaps:3 at 90 Knots
12:42 Wind:059º@005 Knots Heading: 286º Ground Speed: 089 Knots Altitude 810 ft
12:43 TouchDown:Rate -111 ft/min Speed: 67 Knots
12:44 Flaps:1 at 29 Knots
12:44 Flaps:0 at 29 Knots
12:44 VATSIM:LIMJ 071220Z 12011KT 9999 SCT027 BKN032 06/M01 Q1028
12:44 Land
12:44 Wind:061º@005 Knots
12:44 Heading: 284º
12:44 Flight Duration: 02:32
12:44 Landing Weight: 21431 Lbs
12:44 POS N44º 24´ 45´´ E008º 50´ 20´´
12:47 Parking brakes on
12:47 Block to Block Duration: 02:38
12:47 Final Fuel: 1347 Lbls
12:47 Spent Fuel: 1657 Lbls
12:47 Flight Length: 365 NM
12:47 TOD Land Length: 77 NM

Exportar CSV

Powered by Drupal - Modified by Danger4k